Hesperides — EANN — position and weather

sailwx.info

Track history (hours):
 
Tides and Currents Weather Stations Pressure Air Temp Water Temp Dewpoint Dewpoint Depression Visibility Wind Speed Wind Dir Waves Ship Positions

Hesperides

Last reported at 2016-May-04 14:26 UTC. Time now 2016-May-05 02:50 UTC.
Position N 27°59' W 015°23'.

Length 122 m; draft 7.9 m.

Type: Tanker. MMSI: 224462000.

Date/timePositionNaut miles runAvg speedWind from/ knotsBaromVisibWave heightAir tempDewpointWater temp
2016-May-04 14:26N 27°59' W 015°23'3 3.8
2016-May-04 13:33N 27°56' W 015°20'6 5.8
2016-May-04 12:33N 27°51' W 015°18'1 0.7
2016-May-04 11:33N 27°51' W 015°18'0 0.3
2016-May-04 10:33N 27°52' W 015°18'0 0.2
2016-May-04 09:33N 27°52' W 015°18'1 0.5
2016-May-04 08:33N 27°52' W 015°18'6 6.2
2016-May-04 07:33N 27°58' W 015°19'2 1.8
2016-May-04 06:33N 27°60' W 015°19'8 8.4
2016-May-04 05:33N 27°51' W 015°18'5 4.8
2016-May-04 04:33N 27°55' W 015°15'4 3.8
2016-May-04 03:33N 27°59' W 015°17'5 4.5
2016-May-04 02:33N 28°03' W 015°18'4 3.8
2016-May-04 01:33N 27°59' W 015°18'0 0.2
2016-May-04 00:33N 27°60' W 015°18'8 8.0
2016-May-03 23:33N 28°07' W 015°21'8 7.8
2016-May-03 22:33N 28°13' W 015°26'9 9.1
2016-May-03 21:33N 28°17' W 015°36'9 8.7
2016-May-03 20:33N 28°20' W 015°45'9 8.9
2016-May-03 19:33N 28°22' W 015°55'9 9.3
2016-May-03 18:33N 28°25' W 016°05'9 8.6
2016-May-03 17:32N 28°29' W 016°14'0 0.0
2016-May-03 01:27N 28°29' W 016°13'0 0.4
2016-May-03 00:32N 28°29' W 016°13'0 0.0
2016-May-02 23:21N 28°29' W 016°13'0 0.0
2016-May-02 22:25N 28°29' W 016°13'0 0.0
2016-May-02 21:32N 28°29' W 016°13'0 0.0
2016-May-02 20:33N 28°29' W 016°13'0 0.0
2016-May-02 19:33N 28°29' W 016°13'0 0.0
2016-May-02 18:33N 28°29' W 016°13'0 0.0
2016-May-02 17:33N 28°29' W 016°13'0 0.0
2016-May-02 16:33N 28°29' W 016°13'0 0.0
2016-May-02 15:33N 28°29' W 016°13'0 0.0
2016-May-02 14:30N 28°29' W 016°13'0 0.0
2016-May-02 13:32N 28°29' W 016°13'0 0.1
2016-May-02 12:33N 28°29' W 016°13'0 0.0
2016-May-02 11:32N 28°29' W 016°13'0 0.0
2016-May-02 10:33N 28°29' W 016°13'0 0.0
2016-May-02 09:33N 28°29' W 016°13'0 0.0
2016-May-02 08:33N 28°29' W 016°13'0 0.0
2016-May-02 07:33N 28°29' W 016°13'0 0.0
2016-May-02 06:33N 28°29' W 016°13'0 0.0
2016-May-02 05:33N 28°29' W 016°13'0 0.0
2016-May-02 04:33N 28°29' W 016°13'0 0.0
2016-May-02 03:33N 28°29' W 016°13'0 0.0
2016-May-02 02:32N 28°29' W 016°13'0 0.0
2016-May-02 01:33N 28°29' W 016°13'0 0.0
2016-May-02 00:33N 28°29' W 016°13'0 0.0
2016-May-01 23:26N 28°29' W 016°13'0 0.0
2016-May-01 22:32N 28°29' W 016°13'0 0.0
2016-May-01 21:31N 28°29' W 016°13'0 0.0
2016-May-01 20:32N 28°29' W 016°13'0 0.0
2016-May-01 19:33N 28°29' W 016°13'0 0.0
2016-May-01 18:31N 28°29' W 016°13'0 0.0
2016-May-01 17:33N 28°29' W 016°13'0 0.0
2016-May-01 16:31N 28°29' W 016°13'0 0.0
2016-May-01 15:33N 28°29' W 016°13'5 5.3
2016-May-01 14:33N 28°28' W 016°07'9 9.3
2016-May-01 13:33N 28°22' W 015°59'9 9.0
2016-May-01 12:33N 28°16' W 015°51'7 7.2
2016-May-01 11:33N 28°20' W 015°45'7 6.9
2016-May-01 10:33N 28°22' W 015°37'8 7.8
2016-May-01 09:33N 28°18' W 015°30'9 8.7
2016-May-01 08:33N 28°12' W 015°23'4 4.1
2016-May-01 07:33N 28°08' W 015°25'0 0.0
2016-May-01 00:18N 28°08' W 015°25'2 2.4
2016-Apr-30 23:33N 28°07' W 015°24'8 8.1
2016-Apr-30 22:34N 27°60' W 015°20'2 0.1
2016-Apr-29 20:33N 27°59' W 015°23'3 2.7
2016-Apr-29 19:33N 27°58' W 015°20'8 8.2
2016-Apr-29 18:33N 28°07' W 015°21'9 8.7
2016-Apr-29 17:33N 28°14' W 015°25'9 9.4
2016-Apr-29 16:33N 28°17' W 015°35'9 9.2
2016-Apr-29 15:33N 28°19' W 015°45'9 9.2
2016-Apr-29 14:33N 28°22' W 015°55'9 9.1
2016-Apr-29 13:33N 28°25' W 016°05'8 8.2
2016-Apr-29 12:32N 28°29' W 016°14'114 2.5
2016-Apr-27 14:08N 28°06' W 014°07'610.8
2016-Apr-27 13:34N 28°09' W 014°00'1210.5
2016-Apr-27 12:23N 28°17' W 013°50'10 9.9
2016-Apr-27 11:20N 28°28' W 013°50'  
2016-Apr-25 01:20N 28°11' W 013°56'7 9.5
2016-Apr-25 00:33N 28°08' W 014°04'10 9.3
2016-Apr-24 23:32N 28°03' W 014°13'8 8.5
2016-Apr-24 22:33N 28°01' W 014°22'9 8.7
2016-Apr-24 21:33N 28°01' W 014°32'9 9.1
2016-Apr-24 20:33N 28°03' W 014°42'9 9.2
2016-Apr-24 19:34N 28°06' W 014°52'9 9.3
2016-Apr-24 18:34N 28°09' W 015°02'9 9.4
2016-Apr-24 17:34N 28°12' W 015°12'9 9.4
2016-Apr-24 16:33N 28°14' W 015°23'9 9.1
2016-Apr-24 15:34N 28°17' W 015°33'9 9.3
2016-Apr-24 14:34N 28°19' W 015°43'  
Track history (hours):
 
Tides and Currents Weather Stations Pressure Air Temp Water Temp Dewpoint Dewpoint Depression Visibility Wind Speed Wind Dir Waves Ship Positions

Hesperides

Last reported at 2016-May-04 14:26 UTC. Time now 2016-May-05 02:50 UTC.
Position N 27°59' W 015°23'.

Length 122 m; draft 7.9 m.

Type: Tanker. MMSI: 224462000.

Date/timePositionNaut miles runAvg speedWind from/ knotsBaromVisibWave heightAir tempDewpointWater temp
2016-May-04 14:26N 27°59' W 015°23'3 3.8
2016-May-04 13:33N 27°56' W 015°20'6 5.8
2016-May-04 12:33N 27°51' W 015°18'1 0.7
2016-May-04 11:33N 27°51' W 015°18'0 0.3
2016-May-04 10:33N 27°52' W 015°18'0 0.2
2016-May-04 09:33N 27°52' W 015°18'1 0.5
2016-May-04 08:33N 27°52' W 015°18'6 6.2
2016-May-04 07:33N 27°58' W 015°19'2 1.8
2016-May-04 06:33N 27°60' W 015°19'8 8.4
2016-May-04 05:33N 27°51' W 015°18'5 4.8
2016-May-04 04:33N 27°55' W 015°15'4 3.8
2016-May-04 03:33N 27°59' W 015°17'5 4.5
2016-May-04 02:33N 28°03' W 015°18'4 3.8
2016-May-04 01:33N 27°59' W 015°18'0 0.2
2016-May-04 00:33N 27°60' W 015°18'8 8.0
2016-May-03 23:33N 28°07' W 015°21'8 7.8
2016-May-03 22:33N 28°13' W 015°26'9 9.1
2016-May-03 21:33N 28°17' W 015°36'9 8.7
2016-May-03 20:33N 28°20' W 015°45'9 8.9
2016-May-03 19:33N 28°22' W 015°55'9 9.3
2016-May-03 18:33N 28°25' W 016°05'9 8.6
2016-May-03 17:32N 28°29' W 016°14'0 0.0
2016-May-03 01:27N 28°29' W 016°13'0 0.4
2016-May-03 00:32N 28°29' W 016°13'0 0.0
2016-May-02 23:21N 28°29' W 016°13'0 0.0
2016-May-02 22:25N 28°29' W 016°13'0 0.0
2016-May-02 21:32N 28°29' W 016°13'0 0.0
2016-May-02 20:33N 28°29' W 016°13'0 0.0
2016-May-02 19:33N 28°29' W 016°13'0 0.0
2016-May-02 18:33N 28°29' W 016°13'0 0.0
2016-May-02 17:33N 28°29' W 016°13'0 0.0
2016-May-02 16:33N 28°29' W 016°13'0 0.0
2016-May-02 15:33N 28°29' W 016°13'0 0.0
2016-May-02 14:30N 28°29' W 016°13'0 0.0
2016-May-02 13:32N 28°29' W 016°13'0 0.1
2016-May-02 12:33N 28°29' W 016°13'0 0.0
2016-May-02 11:32N 28°29' W 016°13'0 0.0
2016-May-02 10:33N 28°29' W 016°13'0 0.0
2016-May-02 09:33N 28°29' W 016°13'0 0.0
2016-May-02 08:33N 28°29' W 016°13'0 0.0
2016-May-02 07:33N 28°29' W 016°13'0 0.0
2016-May-02 06:33N 28°29' W 016°13'0 0.0
2016-May-02 05:33N 28°29' W 016°13'0 0.0
2016-May-02 04:33N 28°29' W 016°13'0 0.0
2016-May-02 03:33N 28°29' W 016°13'0 0.0
2016-May-02 02:32N 28°29' W 016°13'0 0.0
2016-May-02 01:33N 28°29' W 016°13'0 0.0
2016-May-02 00:33N 28°29' W 016°13'0 0.0
2016-May-01 23:26N 28°29' W 016°13'0 0.0
2016-May-01 22:32N 28°29' W 016°13'0 0.0
2016-May-01 21:31N 28°29' W 016°13'0 0.0
2016-May-01 20:32N 28°29' W 016°13'0 0.0
2016-May-01 19:33N 28°29' W 016°13'0 0.0
2016-May-01 18:31N 28°29' W 016°13'0 0.0
2016-May-01 17:33N 28°29' W 016°13'0 0.0
2016-May-01 16:31N 28°29' W 016°13'0 0.0
2016-May-01 15:33N 28°29' W 016°13'5 5.3
2016-May-01 14:33N 28°28' W 016°07'9 9.3
2016-May-01 13:33N 28°22' W 015°59'9 9.0
2016-May-01 12:33N 28°16' W 015°51'7 7.2
2016-May-01 11:33N 28°20' W 015°45'7 6.9
2016-May-01 10:33N 28°22' W 015°37'8 7.8
2016-May-01 09:33N 28°18' W 015°30'9 8.7
2016-May-01 08:33N 28°12' W 015°23'4 4.1
2016-May-01 07:33N 28°08' W 015°25'0 0.0
2016-May-01 00:18N 28°08' W 015°25'2 2.4
2016-Apr-30 23:33N 28°07' W 015°24'8 8.1
2016-Apr-30 22:34N 27°60' W 015°20'2 0.1
2016-Apr-29 20:33N 27°59' W 015°23'3 2.7
2016-Apr-29 19:33N 27°58' W 015°20'8 8.2
2016-Apr-29 18:33N 28°07' W 015°21'9 8.7
2016-Apr-29 17:33N 28°14' W 015°25'9 9.4
2016-Apr-29 16:33N 28°17' W 015°35'9 9.2
2016-Apr-29 15:33N 28°19' W 015°45'9 9.2
2016-Apr-29 14:33N 28°22' W 015°55'9 9.1
2016-Apr-29 13:33N 28°25' W 016°05'8 8.2
2016-Apr-29 12:32N 28°29' W 016°14'114 2.5
2016-Apr-27 14:08N 28°06' W 014°07'610.8
2016-Apr-27 13:34N 28°09' W 014°00'1210.5
2016-Apr-27 12:23N 28°17' W 013°50'10 9.9
2016-Apr-27 11:20N 28°28' W 013°50'  
2016-Apr-25 01:20N 28°11' W 013°56'7 9.5
2016-Apr-25 00:33N 28°08' W 014°04'10 9.3
2016-Apr-24 23:32N 28°03' W 014°13'8 8.5
2016-Apr-24 22:33N 28°01' W 014°22'9 8.7
2016-Apr-24 21:33N 28°01' W 014°32'9 9.1
2016-Apr-24 20:33N 28°03' W 014°42'9 9.2
2016-Apr-24 19:34N 28°06' W 014°52'9 9.3
2016-Apr-24 18:34N 28°09' W 015°02'9 9.4
2016-Apr-24 17:34N 28°12' W 015°12'9 9.4
2016-Apr-24 16:33N 28°14' W 015°23'9 9.1
2016-Apr-24 15:34N 28°17' W 015°33'9 9.3
2016-Apr-24 14:34N 28°19' W 015°43'  

Dump ship's entire track history